Terminal Aerodrome Forecast
Issued by NWS Charleston, WV

Current Version | Previous Version | Text Only | Print | Product List | Glossary Off
Versions: 1 2 3 4 5 6 7 8 9 10 11 12 13 14 15 16 17 18 19 20 21 22 23 24 25

000
FTUS41 KRLX 180100 AAA
TAFBKW
TAF AMD
KBKW 180118Z 1801/1824 30006KT P6SM BKN015
     FM180600 31007KT P6SM BKN025
     FM181000 30005KT P6SM SCT025 BKN100
     FM182100 30006KT P6SM BKN045=

USA.gov is the U.S. government's official web portal to all federal, state and local government web resources and services.